Time,TemperatureF,DewpointF,PressureIn,WindDirection,WindDirectionDegrees,WindSpeedMPH,WindSpeedGustMPH,Humidity,HourlyPrecipIn,Conditions,Clouds,dailyrainin,SolarRadiationWatts/m^2,SoftwareType,DateUTC
2013-02-08 00:14:00,25.9,23.0,30.05,North,5,5.0,11.0,90,0.00,,,0.00,0,weatherlink.com 1.10,2013-02-08 06:14:00,
2013-02-08 00:29:00,25.5,23.0,30.06,NNW,345,4.0,18.0,89,0.00,,,0.00,0,weatherlink.com 1.10,2013-02-08 06:29:00,
2013-02-08 00:44:00,25.3,23.0,30.06,NNE,22,4.0,11.0,90,0.00,,,0.00,0,weatherlink.com 1.10,2013-02-08 06:44:00,
2013-02-08 00:59:00,25.4,23.0,30.07,NNW,333,5.0,11.0,90,0.00,,,0.00,0,weatherlink.com 1.10,2013-02-08 06:59:00,
2013-02-08 01:14:00,24.9,22.0,30.07,NNE,14,6.0,13.0,90,0.00,,,0.00,0,weatherlink.com 1.10,2013-02-08 07:14:00,
2013-02-08 01:29:00,24.7,22.0,30.09,NNE,19,6.0,14.0,89,0.00,,,0.00,0,weatherlink.com 1.10,2013-02-08 07:29:00,
2013-02-08 01:44:00,24.5,22.0,30.10,North,5,6.0,11.0,89,0.00,,,0.00,0,weatherlink.com 1.10,2013-02-08 07:44:00,
2013-02-08 01:59:00,24.5,22.0,30.09,North,5,4.0,11.0,89,0.00,,,0.00,0,weatherlink.com 1.10,2013-02-08 07:59:00,
2013-02-08 02:14:00,24.5,22.0,30.11,North,355,5.0,12.0,89,0.00,,,0.00,0,weatherlink.com 1.10,2013-02-08 08:14:00,
2013-02-08 02:29:00,24.2,21.0,30.11,North,355,12.0,16.0,88,0.00,,,0.00,0,weatherlink.com 1.10,2013-02-08 08:29:00,
2013-02-08 02:45:00,23.9,21.0,30.12,North,355,5.0,14.0,89,0.00,,,0.00,0,weatherlink.com 1.10,2013-02-08 08:45:00,
2013-02-08 03:00:00,23.9,21.0,30.12,NE,40,11.0,17.0,88,0.00,,,0.00,0,weatherlink.com 1.10,2013-02-08 09:00:00,
2013-02-08 03:15:00,23.2,20.0,30.12,NNE,16,3.0,13.0,86,0.00,,,0.00,0,weatherlink.com 1.10,2013-02-08 09:15:00,
2013-02-08 03:30:00,22.7,19.0,30.13,North,355,4.0,11.0,87,0.00,,,0.00,0,weatherlink.com 1.10,2013-02-08 09:30:00,
2013-02-08 03:45:00,22.7,20.0,30.12,NNE,19,6.0,10.0,88,0.00,,,0.00,0,weatherlink.com 1.10,2013-02-08 09:45:00,
2013-02-08 04:00:00,22.9,20.0,30.13,North,351,4.0,14.0,87,0.00,,,0.00,0,weatherlink.com 1.10,2013-02-08 10:00:00,
2013-02-08 04:15:00,22.9,20.0,30.14,NNE,19,4.0,13.0,87,0.00,,,0.00,0,weatherlink.com 1.10,2013-02-08 10:15:00,
2013-02-08 04:30:00,23.0,20.0,30.16,North,5,4.0,13.0,87,0.00,,,0.00,0,weatherlink.com 1.10,2013-02-08 10:30:00,
2013-02-08 04:45:00,23.1,20.0,30.17,North,5,5.0,14.0,87,0.00,,,0.00,0,weatherlink.com 1.10,2013-02-08 10:45:00,
2013-02-08 05:00:00,23.1,20.0,30.18,NNE,12,5.0,10.0,87,0.00,,,0.00,0,weatherlink.com 1.10,2013-02-08 11:00:00,
2013-02-08 05:15:00,23.3,20.0,30.19,NNE,13,4.0,12.0,86,0.00,,,0.00,0,weatherlink.com 1.10,2013-02-08 11:15:00,
2013-02-08 05:30:00,23.3,20.0,30.19,NNE,22,5.0,13.0,87,0.00,,,0.00,0,weatherlink.com 1.10,2013-02-08 11:30:00,
2013-02-08 05:45:00,23.3,20.0,30.20,North,360,7.0,12.0,87,0.00,,,0.00,0,weatherlink.com 1.10,2013-02-08 11:45:00,
2013-02-08 06:00:00,23.2,20.0,30.20,North,355,8.0,15.0,86,0.00,,,0.00,0,weatherlink.com 1.10,2013-02-08 12:00:00,
2013-02-08 06:15:00,23.2,19.0,30.20,North,5,4.0,13.0,85,0.00,,,0.00,0,weatherlink.com 1.10,2013-02-08 12:15:00,
2013-02-08 06:30:00,23.3,20.0,30.20,North,11,3.0,12.0,86,0.00,,,0.00,0,weatherlink.com 1.10,2013-02-08 12:30:00,
2013-02-08 06:45:00,23.3,20.0,30.21,North,360,7.0,14.0,85,0.00,,,0.00,0,weatherlink.com 1.10,2013-02-08 12:45:00,
2013-02-08 07:00:00,23.3,20.0,30.22,NE,46,6.0,10.0,86,0.00,,,0.00,0,weatherlink.com 1.10,2013-02-08 13:00:00,
2013-02-08 07:15:00,23.4,20.0,30.23,North,355,2.0,10.0,86,0.00,,,0.00,5,weatherlink.com 1.10,2013-02-08 13:15:00,
2013-02-08 07:30:00,23.4,20.0,30.24,NNW,346,3.0,8.0,86,0.00,,,0.00,11,weatherlink.com 1.10,2013-02-08 13:30:00,
2013-02-08 07:45:00,23.4,20.0,30.25,NW,315,4.0,10.0,86,0.00,,,0.00,19,weatherlink.com 1.10,2013-02-08 13:45:00,
2013-02-08 08:00:00,23.4,20.0,30.26,NNW,347,6.0,9.0,86,0.00,,,0.00,28,weatherlink.com 1.10,2013-02-08 14:00:00,
2013-02-08 08:15:00,23.5,20.0,30.27,NNE,22,3.0,10.0,85,0.00,,,0.00,47,weatherlink.com 1.10,2013-02-08 14:15:00,
2013-02-08 08:30:00,23.6,20.0,30.27,NNE,13,6.0,12.0,85,0.00,,,0.00,58,weatherlink.com 1.10,2013-02-08 14:30:00,
2013-02-08 08:45:00,23.6,20.0,30.27,NNW,343,5.0,12.0,84,0.00,,,0.00,69,weatherlink.com 1.10,2013-02-08 14:45:00,
2013-02-08 09:01:00,23.7,20.0,30.28,North,11,6.0,9.0,85,0.00,,,0.00,83,weatherlink.com 1.10,2013-02-08 15:01:00,
2013-02-08 09:16:00,23.9,20.0,30.28,NNW,329,3.0,9.0,84,0.00,,,0.00,102,weatherlink.com 1.10,2013-02-08 15:16:00,
2013-02-08 09:31:00,24.0,20.0,30.29,NNW,333,7.0,11.0,84,0.00,,,0.00,113,weatherlink.com 1.10,2013-02-08 15:31:00,
2013-02-08 09:46:00,23.9,20.0,30.30,North,10,2.0,8.0,84,0.00,,,0.00,139,weatherlink.com 1.10,2013-02-08 15:46:00,
2013-02-08 10:01:00,24.3,20.0,30.30,NNW,341,5.0,9.0,83,0.00,,,0.00,148,weatherlink.com 1.10,2013-02-08 16:01:00,
2013-02-08 10:16:00,24.1,20.0,30.31,NNW,341,4.0,11.0,84,0.00,,,0.00,174,weatherlink.com 1.10,2013-02-08 16:16:00,
2013-02-08 10:31:00,24.3,20.0,30.31,NNE,15,8.0,10.0,82,0.00,,,0.00,211,weatherlink.com 1.10,2013-02-08 16:31:00,
2013-02-08 10:46:00,24.3,19.0,30.31,NW,323,6.0,10.0,81,0.00,,,0.00,213,weatherlink.com 1.10,2013-02-08 16:46:00,
2013-02-08 11:01:00,24.1,19.0,30.33,NE,51,6.0,8.0,82,0.01,,,0.01,230,weatherlink.com 1.10,2013-02-08 17:01:00,
2013-02-08 11:16:00,24.5,19.0,30.32,NNW,343,7.0,9.0,81,0.01,,,0.01,248,weatherlink.com 1.10,2013-02-08 17:16:00,
2013-02-08 11:31:00,23.4,19.0,30.32,NNW,336,12.0,14.0,83,0.01,,,0.01,309,weatherlink.com 1.10,2013-02-08 17:31:00,
2013-02-08 11:46:00,24.4,20.0,30.32,North,355,4.0,10.0,82,0.01,,,0.01,431,weatherlink.com 1.10,2013-02-08 17:46:00,
2013-02-08 12:01:00,25.5,20.0,30.32,North,5,5.0,8.0,78,0.00,,,0.01,795,weatherlink.com 1.10,2013-02-08 18:01:00,
2013-02-08 12:29:00,25.4,19.0,30.30,NNW,347,3.0,8.0,78,0.00,,,0.01,824,weatherlink.com 1.10,2013-02-08 18:29:00,
2013-02-08 12:46:00,25.3,19.0,30.30,North,355,4.0,6.0,78,0.01,,,0.02,805,weatherlink.com 1.10,2013-02-08 18:46:00,
2013-02-08 13:01:00,24.8,19.0,30.31,NW,325,4.0,9.0,79,0.02,,,0.03,758,weatherlink.com 1.10,2013-02-08 19:01:00,
2013-02-08 13:16:00,24.7,20.0,30.31,NNW,337,2.0,8.0,81,0.02,,,0.03,717,weatherlink.com 1.10,2013-02-08 19:16:00,
2013-02-08 13:31:00,25.1,19.0,30.31,NNW,331,3.0,7.0,79,0.03,,,0.04,694,weatherlink.com 1.10,2013-02-08 19:31:00,
2013-02-08 13:46:00,25.8,20.0,30.31,North,350,3.0,7.0,77,0.02,,,0.04,659,weatherlink.com 1.10,2013-02-08 19:46:00,
2013-02-08 14:01:00,25.6,19.0,30.30,NNE,23,4.0,7.0,77,0.01,,,0.04,629,weatherlink.com 1.10,2013-02-08 20:01:00,
2013-02-08 14:16:00,25.8,20.0,30.30,North,5,3.0,6.0,77,0.01,,,0.04,587,weatherlink.com 1.10,2013-02-08 20:16:00,
2013-02-08 14:31:00,25.3,19.0,30.31,NNE,22,4.0,6.0,78,0.00,,,0.04,559,weatherlink.com 1.10,2013-02-08 20:31:00,
2013-02-08 14:46:00,25.3,19.0,30.32,NNE,19,2.0,5.0,78,0.00,,,0.04,512,weatherlink.com 1.10,2013-02-08 20:46:00,
2013-02-08 15:01:00,25.8,19.0,30.32,NNE,19,4.0,4.0,76,0.00,,,0.04,383,weatherlink.com 1.10,2013-02-08 21:01:00,
2013-02-08 15:16:00,25.6,19.0,30.31,NNE,19,0.0,4.0,77,0.00,,,0.04,327,weatherlink.com 1.10,2013-02-08 21:16:00,
2013-02-08 15:31:00,26.2,19.0,30.31,NNE,19,2.0,3.0,75,0.01,,,0.05,299,weatherlink.com 1.10,2013-02-08 21:31:00,
2013-02-08 15:46:00,25.7,19.0,30.31,NNE,19,1.0,3.0,75,0.01,,,0.05,258,weatherlink.com 1.10,2013-02-08 21:46:00,
2013-02-08 16:01:00,25.6,19.0,30.31,NNE,19,0.0,3.0,76,0.01,,,0.05,229,weatherlink.com 1.10,2013-02-08 22:01:00,
2013-02-08 16:16:00,28.7,20.0,30.32,NNE,19,0.0,0.0,69,0.01,,,0.05,167,weatherlink.com 1.10,2013-02-08 22:16:00,
2013-02-08 16:31:00,24.6,17.0,30.32,NNE,19,1.0,2.0,72,0.00,,,0.05,90,weatherlink.com 1.10,2013-02-08 22:31:00,
2013-02-08 16:46:00,23.1,17.0,30.32,NNE,19,2.0,3.0,77,0.00,,,0.05,69,weatherlink.com 1.10,2013-02-08 22:46:00,
2013-02-08 17:01:00,21.1,16.0,30.32,NNE,19,0.0,3.0,80,0.00,,,0.05,35,weatherlink.com 1.10,2013-02-08 23:01:00,
2013-02-08 17:16:00,20.7,16.0,30.32,NNE,19,0.0,2.0,83,0.00,,,0.05,12,weatherlink.com 1.10,2013-02-08 23:16:00,
2013-02-08 17:31:00,19.7,15.0,30.32,NNE,19,3.0,3.0,83,0.00,,,0.05,0,weatherlink.com 1.10,2013-02-08 23:31:00,
2013-02-08 17:47:00,19.0,15.0,30.32,NNE,19,1.0,2.0,85,0.00,,,0.05,0,weatherlink.com 1.10,2013-02-08 23:47:00,
2013-02-08 18:02:00,17.7,14.0,30.33,NNE,19,1.0,2.0,86,0.00,,,0.05,0,weatherlink.com 1.10,2013-02-09 00:02:00,
2013-02-08 18:17:00,16.1,13.0,30.33,NNE,19,1.0,2.0,86,0.00,,,0.05,0,weatherlink.com 1.10,2013-02-09 00:17:00,
2013-02-08 18:32:00,15.5,13.0,30.33,NNE,19,1.0,2.0,89,0.00,,,0.05,0,weatherlink.com 1.10,2013-02-09 00:32:00,
2013-02-08 18:47:00,14.0,11.0,30.34,East,89,3.0,8.0,89,0.00,,,0.05,0,weatherlink.com 1.10,2013-02-09 00:47:00,
2013-02-08 19:02:00,12.8,10.0,30.34,East,89,3.0,6.0,88,0.00,,,0.05,0,weatherlink.com 1.10,2013-02-09 01:02:00,
2013-02-08 19:17:00,12.2,10.0,30.34,East,89,3.0,5.0,90,0.00,,,0.05,0,weatherlink.com 1.10,2013-02-09 01:17:00,
2013-02-08 19:32:00,11.1,9.0,30.34,East,89,6.0,6.0,91,0.00,,,0.05,0,weatherlink.com 1.10,2013-02-09 01:32:00,
2013-02-08 19:47:00,13.5,11.0,30.34,East,99,6.0,8.0,91,0.00,,,0.05,0,weatherlink.com 1.10,2013-02-09 01:47:00,
2013-02-08 20:02:00,11.6,9.0,30.34,East,99,2.0,7.0,89,0.00,,,0.05,0,weatherlink.com 1.10,2013-02-09 02:02:00,
2013-02-08 20:17:00,9.8,8.0,30.35,East,99,3.0,3.0,90,0.00,,,0.05,0,weatherlink.com 1.10,2013-02-09 02:17:00,
2013-02-08 20:32:00,7.9,5.0,30.34,East,99,2.0,5.0,89,0.00,,,0.05,0,weatherlink.com 1.10,2013-02-09 02:32:00,
2013-02-08 20:47:00,8.6,6.0,30.34,East,99,6.0,6.0,90,0.00,,,0.05,0,weatherlink.com 1.10,2013-02-09 02:47:00,
2013-02-08 21:02:00,10.6,9.0,30.34,East,99,5.0,7.0,91,0.00,,,0.05,0,weatherlink.com 1.10,2013-02-09 03:02:00,
2013-02-08 21:17:00,8.5,6.0,30.34,East,99,1.0,2.0,88,0.00,,,0.05,0,weatherlink.com 1.10,2013-02-09 03:17:00,
2013-02-08 21:32:00,7.1,4.0,30.35,East,99,1.0,2.0,88,0.00,,,0.05,0,weatherlink.com 1.10,2013-02-09 03:32:00,
2013-02-08 21:47:00,6.2,3.0,30.35,East,99,3.0,3.0,88,0.00,,,0.05,0,weatherlink.com 1.10,2013-02-09 03:47:00,
2013-02-08 22:02:00,6.1,4.0,30.35,East,99,0.0,2.0,89,0.00,,,0.05,0,weatherlink.com 1.10,2013-02-09 04:02:00,
2013-02-08 22:17:00,6.0,3.0,30.35,East,99,2.0,3.0,88,0.00,,,0.05,0,weatherlink.com 1.10,2013-02-09 04:17:00,
2013-02-08 22:32:00,5.9,3.0,30.34,ESE,106,4.0,5.0,89,0.00,,,0.05,0,weatherlink.com 1.10,2013-02-09 04:32:00,
2013-02-08 22:47:00,5.7,3.0,30.34,ESE,114,2.0,5.0,88,0.00,,,0.05,0,weatherlink.com 1.10,2013-02-09 04:47:00,
2013-02-08 23:02:00,4.1,1.0,30.34,ESE,121,1.0,3.0,86,0.00,,,0.05,0,weatherlink.com 1.10,2013-02-09 05:02:00,
2013-02-08 23:17:00,2.9,0.0,30.34,ESE,121,2.0,3.0,86,0.00,,,0.05,0,weatherlink.com 1.10,2013-02-09 05:17:00,
2013-02-08 23:33:00,3.4,1.0,30.35,ESE,121,2.0,3.0,88,0.00,,,0.05,0,weatherlink.com 1.10,2013-02-09 05:33:00,
2013-02-08 23:48:00,4.0,1.0,30.34,ESE,121,2.0,3.0,88,0.00,,,0.05,0,weatherlink.com 1.10,2013-02-09 05:48:00,